Viking Star — LAIW6 — position and weather

sailwx.info

Track history (hours):
 
Tides and Currents Weather Stations Pressure Air Temp Water Temp Dewpoint Dewpoint Depression Visibility Wind Speed Wind Dir Waves Ship Positions

Viking Star

Last reported at 2019-Aug-20 09:58 UTC. Time now 2019-Aug-20 10:25 UTC.
Position N 38°12' E 015°33'.

Length 228 m; draft 6.7 m.

Type: Passenger vessel. MMSI: 257903000.

Date/timePositionNaut miles runAvg speedWind from/ knotsBaromVisibWave heightAir tempDewpointWater temp
2019-Aug-20 09:58N 38°12' E 015°33'0 0.0
2019-Aug-20 09:28N 38°12' E 015°33'0 0.0
2019-Aug-20 08:58N 38°12' E 015°33'0 0.0
2019-Aug-20 08:25N 38°12' E 015°33'0 0.0
2019-Aug-20 07:55N 38°12' E 015°33'0 0.0
2019-Aug-20 07:28N 38°12' E 015°33'0 0.0
2019-Aug-20 06:58N 38°12' E 015°33'0 0.0
2019-Aug-20 06:28N 38°12' E 015°33'0 0.0
2019-Aug-20 05:55N 38°12' E 015°33'0 0.0
2019-Aug-20 05:30N 38°12' E 015°33'2 3.8
2019-Aug-20 05:00N 38°13' E 015°35'4 8.3
2019-Aug-20 04:30N 38°09' E 015°37'4 8.9
2019-Aug-20 04:00N 38°04' E 015°36'510.6
2019-Aug-20 03:30N 37°59' E 015°36'510.2
2019-Aug-20 03:00N 37°55' E 015°39'510.3
2019-Aug-20 02:30N 37°52' E 015°44'510.9
2019-Aug-20 02:00N 37°52' E 015°51'9810.3
2019-Aug-19 16:29N 39°07' E 017°11'113 5.2
2019-Aug-18 18:42N 40°59' E 017°31'318.4
2019-Aug-18 18:31N 41°01' E 017°27'1418.2
2019-Aug-18 17:43N 41°08' E 017°10'416.3
2019-Aug-18 17:30N 41°10' E 017°06'916.0
2019-Aug-18 16:57N 41°10' E 016°54'3 1.0
2019-Aug-18 14:27N 41°08' E 016°52'0 0.0
2019-Aug-18 13:57N 41°08' E 016°52'0 0.0
2019-Aug-18 08:45N 41°08' E 016°52'206 6.1
2019-Aug-16 23:09N 44°00' E 014°18'215.9
2019-Aug-16 23:01N 44°01' E 014°15'815.8
2019-Aug-16 22:31N 44°05' E 014°06'815.8
2019-Aug-16 22:01N 44°11' E 013°59'816.0
2019-Aug-16 21:31N 44°17' E 013°52'815.8
2019-Aug-16 21:00N 44°24' E 013°45'816.0
2019-Aug-16 20:31N 44°31' E 013°40'815.6
2019-Aug-16 20:00N 44°37' E 013°33'815.5
2019-Aug-16 19:31N 44°43' E 013°27'815.4
2019-Aug-16 19:00N 44°50' E 013°21'714.6
2019-Aug-16 18:30N 44°54' E 013°13'815.6
2019-Aug-16 18:01N 44°55' E 013°02'815.4
2019-Aug-16 17:31N 44°56' E 012°51'815.5
2019-Aug-16 17:01N 45°03' E 012°45'815.3
2019-Aug-16 16:31N 45°09' E 012°38'714.7
2019-Aug-16 16:01N 45°14' E 012°30'714.5
2019-Aug-16 15:30N 45°21' E 012°30'5 9.4
2019-Aug-16 15:00N 45°25' E 012°27'3 6.0
2019-Aug-16 14:30N 45°25' E 012°22'2 5.0
2019-Aug-16 14:00N 45°26' E 012°19'0 0.9
2019-Aug-16 13:30N 45°26' E 012°19'0 0.0
2019-Aug-16 13:00N 45°26' E 012°19'0 0.0
2019-Aug-16 12:30N 45°26' E 012°19'0 0.0
2019-Aug-16 12:00N 45°26' E 012°19'0 0.0
2019-Aug-16 11:30N 45°26' E 012°19'0 0.0
2019-Aug-16 11:00N 45°26' E 012°19'0 0.0
2019-Aug-16 10:30N 45°26' E 012°19'0 0.0
2019-Aug-16 10:00N 45°26' E 012°19'0 0.0
2019-Aug-16 09:30N 45°26' E 012°19'0 0.0
2019-Aug-16 09:00N 45°26' E 012°19'0 0.0
2019-Aug-16 08:30N 45°26' E 012°19'0 0.0
2019-Aug-16 08:00N 45°26' E 012°19'0 0.0
2019-Aug-16 07:30N 45°26' E 012°19'0 0.0
2019-Aug-16 07:00N 45°26' E 012°19'0 0.0
2019-Aug-16 06:30N 45°26' E 012°19'0 0.0
2019-Aug-16 06:00N 45°26' E 012°19'0 0.0
2019-Aug-16 05:30N 45°26' E 012°19'0 0.0
2019-Aug-16 05:00N 45°26' E 012°19'0 0.0
2019-Aug-16 04:30N 45°26' E 012°19'0 0.0
2019-Aug-16 03:57N 45°26' E 012°19'0 0.0
2019-Aug-16 03:30N 45°26' E 012°19'0 0.0
2019-Aug-16 03:00N 45°26' E 012°19'0 0.0
2019-Aug-16 02:30N 45°26' E 012°19'0 0.0
2019-Aug-16 02:00N 45°26' E 012°19'0 0.0
2019-Aug-16 01:30N 45°26' E 012°19'0 0.0
2019-Aug-16 01:00N 45°26' E 012°19'0 0.0
2019-Aug-16 00:30N 45°26' E 012°19'0 0.0
2019-Aug-16 00:00N 45°26' E 012°19'0 0.0
2019-Aug-15 23:30N 45°26' E 012°19'0 0.0
2019-Aug-15 23:00N 45°26' E 012°19'0 0.0
2019-Aug-15 22:30N 45°26' E 012°19'0 0.0
2019-Aug-15 22:00N 45°26' E 012°19'0 0.0
2019-Aug-15 21:30N 45°26' E 012°19'0 0.0
2019-Aug-15 21:00N 45°26' E 012°19'0 0.0
2019-Aug-15 20:30N 45°26' E 012°19'0 0.0
2019-Aug-15 20:00N 45°26' E 012°19'0 0.0
2019-Aug-15 19:30N 45°26' E 012°19'0 0.0
2019-Aug-15 19:00N 45°26' E 012°19'0 0.0
2019-Aug-15 18:30N 45°26' E 012°19'0 0.0
2019-Aug-15 18:00N 45°26' E 012°19'0 0.0
2019-Aug-15 17:26N 45°26' E 012°19'0 0.0
2019-Aug-15 16:59N 45°26' E 012°19'0 0.0
2019-Aug-15 16:29N 45°26' E 012°19'0 0.0
2019-Aug-15 15:59N 45°26' E 012°19'0 0.0
2019-Aug-15 15:29N 45°26' E 012°19'0 0.0
2019-Aug-15 14:59N 45°26' E 012°19'0 0.0
2019-Aug-15 14:29N 45°26' E 012°19'0 0.0
2019-Aug-15 13:59N 45°26' E 012°19'0 0.0
2019-Aug-15 13:29N 45°26' E 012°19'0 0.0
2019-Aug-15 12:59N 45°26' E 012°19'0 0.0
2019-Aug-15 12:29N 45°26' E 012°19'0 0.0
2019-Aug-15 11:59N 45°26' E 012°19'0 0.0
2019-Aug-15 11:18N 45°26' E 012°19'0 0.0
2019-Aug-15 10:58N 45°26' E 012°19'0 0.0
2019-Aug-15 10:30N 45°26' E 012°19'0 0.0
2019-Aug-15 09:58N 45°26' E 012°19'0 0.0
2019-Aug-15 09:28N 45°26' E 012°19'0 0.0
2019-Aug-15 08:58N 45°26' E 012°19'0 0.0
2019-Aug-15 08:25N 45°26' E 012°19'0 0.0
2019-Aug-15 07:58N 45°26' E 012°19'0 0.0
2019-Aug-15 07:28N 45°26' E 012°19'0 0.0
2019-Aug-15 07:00N 45°26' E 012°19'0 0.0
2019-Aug-15 06:30N 45°26' E 012°19'0 0.0
2019-Aug-15 06:00N 45°26' E 012°19'0 0.0
2019-Aug-15 05:30N 45°26' E 012°19'0 0.0
2019-Aug-15 05:00N 45°26' E 012°19'0 0.0
2019-Aug-15 04:27N 45°26' E 012°19'0 0.0
2019-Aug-15 03:57N 45°26' E 012°19'0 0.0
2019-Aug-15 03:30N 45°26' E 012°19'0 0.0
2019-Aug-15 03:00N 45°26' E 012°19'0 0.0
2019-Aug-15 02:30N 45°26' E 012°19'0 0.0
2019-Aug-15 02:00N 45°26' E 012°19'0 0.0
2019-Aug-15 01:30N 45°26' E 012°19'0 0.0
2019-Aug-15 01:00N 45°26' E 012°19'0 0.0
2019-Aug-15 00:30N 45°26' E 012°19'0 0.0
2019-Aug-15 00:00N 45°26' E 012°19'0 0.0
2019-Aug-14 23:30N 45°26' E 012°19'0 0.0
2019-Aug-14 23:00N 45°26' E 012°19'0 0.0
2019-Aug-14 22:30N 45°26' E 012°19'0 0.0
2019-Aug-14 22:00N 45°26' E 012°19'0 0.0
2019-Aug-14 21:30N 45°26' E 012°19'0 0.0
2019-Aug-14 21:00N 45°26' E 012°19'0 0.0
2019-Aug-14 20:30N 45°26' E 012°19'0 0.0
2019-Aug-14 20:00N 45°26' E 012°19'0 0.0
2019-Aug-14 19:30N 45°26' E 012°19'0 0.0
2019-Aug-14 19:00N 45°26' E 012°19'0 0.0
2019-Aug-14 18:30N 45°26' E 012°19'0 0.0
2019-Aug-14 18:00N 45°26' E 012°19'0 0.0
2019-Aug-14 17:30N 45°26' E 012°19'0 0.0
2019-Aug-14 17:00N 45°26' E 012°19'0 0.0
2019-Aug-14 16:30N 45°26' E 012°19'0 0.0
2019-Aug-14 16:00N 45°26' E 012°19'0 0.0
2019-Aug-14 15:30N 45°26' E 012°19'0 0.0
2019-Aug-14 15:00N 45°26' E 012°19'0 0.0
2019-Aug-14 14:30N 45°26' E 012°19'0 0.0
2019-Aug-14 14:00N 45°26' E 012°19'0 0.0
2019-Aug-14 13:30N 45°26' E 012°19'0 0.0
2019-Aug-14 13:00N 45°26' E 012°19'0 0.0
2019-Aug-14 12:30N 45°26' E 012°19'0 0.0
2019-Aug-14 11:57N 45°26' E 012°19'0 0.0
2019-Aug-14 11:30N 45°26' E 012°19'0 0.0
2019-Aug-14 11:00N 45°26' E 012°19'0 0.0
2019-Aug-14 10:30N 45°26' E 012°19'0 0.0
2019-Aug-14 10:00N 45°26' E 012°19'0 0.0
2019-Aug-14 09:30N 45°26' E 012°19'1 1.3
2019-Aug-14 09:00N 45°26' E 012°19'2 4.6
2019-Aug-14 08:30N 45°26' E 012°22'3 7.0
2019-Aug-14 08:00N 45°25' E 012°27'611.4
2019-Aug-14 07:30N 45°20' E 012°32'612.1
2019-Aug-14 07:00N 45°15' E 012°36'612.7
2019-Aug-14 06:30N 45°11' E 012°43'612.4
2019-Aug-14 06:00N 45°06' E 012°49'612.6
2019-Aug-14 05:30N 45°01' E 012°53'612.2
2019-Aug-14 05:00N 44°56' E 012°58'612.5
2019-Aug-14 04:30N 44°56' E 013°07'713.2
2019-Aug-14 04:00N 44°56' E 013°16'612.6
2019-Aug-14 03:30N 44°53' E 013°24'713.9
2019-Aug-14 03:01N 44°47' E 013°30'714.0
2019-Aug-14 02:31N 44°41' E 013°35'713.8
2019-Aug-14 02:00N 44°35' E 013°41'714.8
2019-Aug-14 01:30N 44°29' E 013°46'815.3
2019-Aug-14 01:00N 44°23' E 013°52'815.1
2019-Aug-14 00:30N 44°16' E 013°58'714.8
2019-Aug-14 00:00N 44°10' E 014°04'102 4.7
2019-Aug-13 02:10N 43°17' E 016°04'812.4
2019-Aug-13 01:30N 43°10' E 015°60'  
Track history (hours):
 
Tides and Currents Weather Stations Pressure Air Temp Water Temp Dewpoint Dewpoint Depression Visibility Wind Speed Wind Dir Waves Ship Positions

Viking Star

Last reported at 2019-Aug-20 09:58 UTC. Time now 2019-Aug-20 10:25 UTC.
Position N 38°12' E 015°33'.

Length 228 m; draft 6.7 m.

Type: Passenger vessel. MMSI: 257903000.

Date/timePositionNaut miles runAvg speedWind from/ knotsBaromVisibWave heightAir tempDewpointWater temp
2019-Aug-20 09:58N 38°12' E 015°33'0 0.0
2019-Aug-20 09:28N 38°12' E 015°33'0 0.0
2019-Aug-20 08:58N 38°12' E 015°33'0 0.0
2019-Aug-20 08:25N 38°12' E 015°33'0 0.0
2019-Aug-20 07:55N 38°12' E 015°33'0 0.0
2019-Aug-20 07:28N 38°12' E 015°33'0 0.0
2019-Aug-20 06:58N 38°12' E 015°33'0 0.0
2019-Aug-20 06:28N 38°12' E 015°33'0 0.0
2019-Aug-20 05:55N 38°12' E 015°33'0 0.0
2019-Aug-20 05:30N 38°12' E 015°33'2 3.8
2019-Aug-20 05:00N 38°13' E 015°35'4 8.3
2019-Aug-20 04:30N 38°09' E 015°37'4 8.9
2019-Aug-20 04:00N 38°04' E 015°36'510.6
2019-Aug-20 03:30N 37°59' E 015°36'510.2
2019-Aug-20 03:00N 37°55' E 015°39'510.3
2019-Aug-20 02:30N 37°52' E 015°44'510.9
2019-Aug-20 02:00N 37°52' E 015°51'9810.3
2019-Aug-19 16:29N 39°07' E 017°11'113 5.2
2019-Aug-18 18:42N 40°59' E 017°31'318.4
2019-Aug-18 18:31N 41°01' E 017°27'1418.2
2019-Aug-18 17:43N 41°08' E 017°10'416.3
2019-Aug-18 17:30N 41°10' E 017°06'916.0
2019-Aug-18 16:57N 41°10' E 016°54'3 1.0
2019-Aug-18 14:27N 41°08' E 016°52'0 0.0
2019-Aug-18 13:57N 41°08' E 016°52'0 0.0
2019-Aug-18 08:45N 41°08' E 016°52'206 6.1
2019-Aug-16 23:09N 44°00' E 014°18'215.9
2019-Aug-16 23:01N 44°01' E 014°15'815.8
2019-Aug-16 22:31N 44°05' E 014°06'815.8
2019-Aug-16 22:01N 44°11' E 013°59'816.0
2019-Aug-16 21:31N 44°17' E 013°52'815.8
2019-Aug-16 21:00N 44°24' E 013°45'816.0
2019-Aug-16 20:31N 44°31' E 013°40'815.6
2019-Aug-16 20:00N 44°37' E 013°33'815.5
2019-Aug-16 19:31N 44°43' E 013°27'815.4
2019-Aug-16 19:00N 44°50' E 013°21'714.6
2019-Aug-16 18:30N 44°54' E 013°13'815.6
2019-Aug-16 18:01N 44°55' E 013°02'815.4
2019-Aug-16 17:31N 44°56' E 012°51'815.5
2019-Aug-16 17:01N 45°03' E 012°45'815.3
2019-Aug-16 16:31N 45°09' E 012°38'714.7
2019-Aug-16 16:01N 45°14' E 012°30'714.5
2019-Aug-16 15:30N 45°21' E 012°30'5 9.4
2019-Aug-16 15:00N 45°25' E 012°27'3 6.0
2019-Aug-16 14:30N 45°25' E 012°22'2 5.0
2019-Aug-16 14:00N 45°26' E 012°19'0 0.9
2019-Aug-16 13:30N 45°26' E 012°19'0 0.0
2019-Aug-16 13:00N 45°26' E 012°19'0 0.0
2019-Aug-16 12:30N 45°26' E 012°19'0 0.0
2019-Aug-16 12:00N 45°26' E 012°19'0 0.0
2019-Aug-16 11:30N 45°26' E 012°19'0 0.0
2019-Aug-16 11:00N 45°26' E 012°19'0 0.0
2019-Aug-16 10:30N 45°26' E 012°19'0 0.0
2019-Aug-16 10:00N 45°26' E 012°19'0 0.0
2019-Aug-16 09:30N 45°26' E 012°19'0 0.0
2019-Aug-16 09:00N 45°26' E 012°19'0 0.0
2019-Aug-16 08:30N 45°26' E 012°19'0 0.0
2019-Aug-16 08:00N 45°26' E 012°19'0 0.0
2019-Aug-16 07:30N 45°26' E 012°19'0 0.0
2019-Aug-16 07:00N 45°26' E 012°19'0 0.0
2019-Aug-16 06:30N 45°26' E 012°19'0 0.0
2019-Aug-16 06:00N 45°26' E 012°19'0 0.0
2019-Aug-16 05:30N 45°26' E 012°19'0 0.0
2019-Aug-16 05:00N 45°26' E 012°19'0 0.0
2019-Aug-16 04:30N 45°26' E 012°19'0 0.0
2019-Aug-16 03:57N 45°26' E 012°19'0 0.0
2019-Aug-16 03:30N 45°26' E 012°19'0 0.0
2019-Aug-16 03:00N 45°26' E 012°19'0 0.0
2019-Aug-16 02:30N 45°26' E 012°19'0 0.0
2019-Aug-16 02:00N 45°26' E 012°19'0 0.0
2019-Aug-16 01:30N 45°26' E 012°19'0 0.0
2019-Aug-16 01:00N 45°26' E 012°19'0 0.0
2019-Aug-16 00:30N 45°26' E 012°19'0 0.0
2019-Aug-16 00:00N 45°26' E 012°19'0 0.0
2019-Aug-15 23:30N 45°26' E 012°19'0 0.0
2019-Aug-15 23:00N 45°26' E 012°19'0 0.0
2019-Aug-15 22:30N 45°26' E 012°19'0 0.0
2019-Aug-15 22:00N 45°26' E 012°19'0 0.0
2019-Aug-15 21:30N 45°26' E 012°19'0 0.0
2019-Aug-15 21:00N 45°26' E 012°19'0 0.0
2019-Aug-15 20:30N 45°26' E 012°19'0 0.0
2019-Aug-15 20:00N 45°26' E 012°19'0 0.0
2019-Aug-15 19:30N 45°26' E 012°19'0 0.0
2019-Aug-15 19:00N 45°26' E 012°19'0 0.0
2019-Aug-15 18:30N 45°26' E 012°19'0 0.0
2019-Aug-15 18:00N 45°26' E 012°19'0 0.0
2019-Aug-15 17:26N 45°26' E 012°19'0 0.0
2019-Aug-15 16:59N 45°26' E 012°19'0 0.0
2019-Aug-15 16:29N 45°26' E 012°19'0 0.0
2019-Aug-15 15:59N 45°26' E 012°19'0 0.0
2019-Aug-15 15:29N 45°26' E 012°19'0 0.0
2019-Aug-15 14:59N 45°26' E 012°19'0 0.0
2019-Aug-15 14:29N 45°26' E 012°19'0 0.0
2019-Aug-15 13:59N 45°26' E 012°19'0 0.0
2019-Aug-15 13:29N 45°26' E 012°19'0 0.0
2019-Aug-15 12:59N 45°26' E 012°19'0 0.0
2019-Aug-15 12:29N 45°26' E 012°19'0 0.0
2019-Aug-15 11:59N 45°26' E 012°19'0 0.0
2019-Aug-15 11:18N 45°26' E 012°19'0 0.0
2019-Aug-15 10:58N 45°26' E 012°19'0 0.0
2019-Aug-15 10:30N 45°26' E 012°19'0 0.0
2019-Aug-15 09:58N 45°26' E 012°19'0 0.0
2019-Aug-15 09:28N 45°26' E 012°19'0 0.0
2019-Aug-15 08:58N 45°26' E 012°19'0 0.0
2019-Aug-15 08:25N 45°26' E 012°19'0 0.0
2019-Aug-15 07:58N 45°26' E 012°19'0 0.0
2019-Aug-15 07:28N 45°26' E 012°19'0 0.0
2019-Aug-15 07:00N 45°26' E 012°19'0 0.0
2019-Aug-15 06:30N 45°26' E 012°19'0 0.0
2019-Aug-15 06:00N 45°26' E 012°19'0 0.0
2019-Aug-15 05:30N 45°26' E 012°19'0 0.0
2019-Aug-15 05:00N 45°26' E 012°19'0 0.0
2019-Aug-15 04:27N 45°26' E 012°19'0 0.0
2019-Aug-15 03:57N 45°26' E 012°19'0 0.0
2019-Aug-15 03:30N 45°26' E 012°19'0 0.0
2019-Aug-15 03:00N 45°26' E 012°19'0 0.0
2019-Aug-15 02:30N 45°26' E 012°19'0 0.0
2019-Aug-15 02:00N 45°26' E 012°19'0 0.0
2019-Aug-15 01:30N 45°26' E 012°19'0 0.0
2019-Aug-15 01:00N 45°26' E 012°19'0 0.0
2019-Aug-15 00:30N 45°26' E 012°19'0 0.0
2019-Aug-15 00:00N 45°26' E 012°19'0 0.0
2019-Aug-14 23:30N 45°26' E 012°19'0 0.0
2019-Aug-14 23:00N 45°26' E 012°19'0 0.0
2019-Aug-14 22:30N 45°26' E 012°19'0 0.0
2019-Aug-14 22:00N 45°26' E 012°19'0 0.0
2019-Aug-14 21:30N 45°26' E 012°19'0 0.0
2019-Aug-14 21:00N 45°26' E 012°19'0 0.0
2019-Aug-14 20:30N 45°26' E 012°19'0 0.0
2019-Aug-14 20:00N 45°26' E 012°19'0 0.0
2019-Aug-14 19:30N 45°26' E 012°19'0 0.0
2019-Aug-14 19:00N 45°26' E 012°19'0 0.0
2019-Aug-14 18:30N 45°26' E 012°19'0 0.0
2019-Aug-14 18:00N 45°26' E 012°19'0 0.0
2019-Aug-14 17:30N 45°26' E 012°19'0 0.0
2019-Aug-14 17:00N 45°26' E 012°19'0 0.0
2019-Aug-14 16:30N 45°26' E 012°19'0 0.0
2019-Aug-14 16:00N 45°26' E 012°19'0 0.0
2019-Aug-14 15:30N 45°26' E 012°19'0 0.0
2019-Aug-14 15:00N 45°26' E 012°19'0 0.0
2019-Aug-14 14:30N 45°26' E 012°19'0 0.0
2019-Aug-14 14:00N 45°26' E 012°19'0 0.0
2019-Aug-14 13:30N 45°26' E 012°19'0 0.0
2019-Aug-14 13:00N 45°26' E 012°19'0 0.0
2019-Aug-14 12:30N 45°26' E 012°19'0 0.0
2019-Aug-14 11:57N 45°26' E 012°19'0 0.0
2019-Aug-14 11:30N 45°26' E 012°19'0 0.0
2019-Aug-14 11:00N 45°26' E 012°19'0 0.0
2019-Aug-14 10:30N 45°26' E 012°19'0 0.0
2019-Aug-14 10:00N 45°26' E 012°19'0 0.0
2019-Aug-14 09:30N 45°26' E 012°19'1 1.3
2019-Aug-14 09:00N 45°26' E 012°19'2 4.6
2019-Aug-14 08:30N 45°26' E 012°22'3 7.0
2019-Aug-14 08:00N 45°25' E 012°27'611.4
2019-Aug-14 07:30N 45°20' E 012°32'612.1
2019-Aug-14 07:00N 45°15' E 012°36'612.7
2019-Aug-14 06:30N 45°11' E 012°43'612.4
2019-Aug-14 06:00N 45°06' E 012°49'612.6
2019-Aug-14 05:30N 45°01' E 012°53'612.2
2019-Aug-14 05:00N 44°56' E 012°58'612.5
2019-Aug-14 04:30N 44°56' E 013°07'713.2
2019-Aug-14 04:00N 44°56' E 013°16'612.6
2019-Aug-14 03:30N 44°53' E 013°24'713.9
2019-Aug-14 03:01N 44°47' E 013°30'714.0
2019-Aug-14 02:31N 44°41' E 013°35'713.8
2019-Aug-14 02:00N 44°35' E 013°41'714.8
2019-Aug-14 01:30N 44°29' E 013°46'815.3
2019-Aug-14 01:00N 44°23' E 013°52'815.1
2019-Aug-14 00:30N 44°16' E 013°58'714.8
2019-Aug-14 00:00N 44°10' E 014°04'102 4.7
2019-Aug-13 02:10N 43°17' E 016°04'812.4
2019-Aug-13 01:30N 43°10' E 015°60'  

Dump ship's entire track history